Stagione 2024 · Round 4

Japanese Grand Prix

2024-04-07 · Suzuka Circuito · Japan · Japanese Grand Prix · 53Lap · 307.471km
Red Bull 1:54:23.566
Vittoria di squadra 44pt P1 · P2 1-2
Red Bull +12.535
Ferrari +20.866
Giro veloce
1:33.706 · L50
Ritiro
3
Guanyu Zhou L12 Daniel Ricciardo L0 Alexander Albon L0
Meteo
22°/38°
media aria/pista · asciutto · umidità 43%
Safety car
0
Impieghi SC/VSC
Uso gomme Direzione gara
Storylines · This Grand Prix & circuit
Più vittorie in questo GP
Michael Schumacher 6 vittorie
Lewis Hamilton attivo 5 vittorie
Sebastian Vettel 4 vittorie
Conversione pole-vittoria 20/36 55.6%
Most SC/VSC · all-time P14
Arrivo più ravvicinato · all-time P27
Most lead changes · all-time P1
Circuito Info
Suzuka Circuito Suzuka, Japan
53Lap 307.471km 36 gare held (1987–) Record del giro 1:30.965 · Andrea Kimi Antonelli (2025)
Record Watch · Active drivers ranked at this Grand Prix
P2 Lewis Hamilton 5 vittorie · → Michael Schumacher -1
P3 Max Verstappen 4 vittorie · → Lewis Hamilton -1
P5 Fernando Alonso 2 vittorie · → Sebastian Vettel -2
P1 Fernando Alonso 22 partenze · GP #1
P4 Lewis Hamilton 18 partenze · → Rubens Barrichello -1
P11 Nico Hülkenberg 13 partenze · → Sebastian Vettel -1
Gara Trace · position by lap
bandiera rossa · gara sospesa · giro 1 partenza da fermo · giro 2 partenza da fermo · giro 2 partenza da fermo SG 1 5 9 13 17 21 25 29 33 37 41 45 49 53 Verstappen · sosta ai box L16 Verstappen · sosta ai box L34 Verstappen VER Verstappen VER Pérez · sosta ai box L1 Pérez · sosta ai box L15 Pérez · sosta ai box L33 Pérez PER Pérez PER Sainz · sosta ai box L1 Sainz · sosta ai box L15 Sainz · sosta ai box L36 Sainz SAI Sainz SAI Leclerc · sosta ai box L1 Leclerc · sosta ai box L26 Leclerc LEC Leclerc LEC Norris · sosta ai box L1 Norris · sosta ai box L11 Norris · sosta ai box L26 Norris NOR Norris NOR Alonso · sosta ai box L1 Alonso · sosta ai box L13 Alonso · sosta ai box L33 Alonso ALO Alonso ALO Russell · sosta ai box L1 Russell · sosta ai box L22 Russell · sosta ai box L37 Russell RUS Russell RUS Piastri · sosta ai box L1 Piastri · sosta ai box L12 Piastri · sosta ai box L32 Piastri PIA Piastri PIA Hamilton · sosta ai box L1 Hamilton · sosta ai box L23 Hamilton · sosta ai box L39 Hamilton HAM Hamilton HAM Tsunoda · sosta ai box L1 Tsunoda · sosta ai box L7 Tsunoda · sosta ai box L22 Tsunoda TSU Tsunoda TSU Hülkenberg · sosta ai box L1 Hülkenberg · sosta ai box L5 Hülkenberg · sosta ai box L33 Hülkenberg HUL Hülkenberg HUL Stroll · sosta ai box L1 Stroll · sosta ai box L12 Stroll · sosta ai box L22 Stroll · sosta ai box L34 Stroll STR Stroll STR Magnussen · sosta ai box L1 Magnussen · sosta ai box L22 Magnussen MAG Magnussen MAG Bottas · sosta ai box L1 Bottas · sosta ai box L6 Bottas · sosta ai box L22 Bottas BOT Bottas BOT Ocon · sosta ai box L1 Ocon · sosta ai box L19 Ocon · sosta ai box L33 Ocon OCO Ocon OCO Gasly · sosta ai box L1 Gasly · sosta ai box L16 Gasly · sosta ai box L32 Gasly GAS Gasly GAS Sargeant · sosta ai box L1 Sargeant · sosta ai box L22 Sargeant · sosta ai box L34 Sargeant · sosta ai box L41 Sargeant SAR Sargeant SAR Zhou · sosta ai box L1 Zhou · sosta ai box L7 Zhou · sosta ai box L11 Zhou · ritiro L12 Zhou ZHO Zhou ZHO Ricciardo · ritiro L0 Ricciardo RIC Ricciardo RIC Albon · ritiro L0 Albon ALB Albon ALB
sosta ai box penalità scontata ai box bandiera rossa partenza da fermo SG Griglia di partenza vettura ferma posizione a ogni giro (dal 1996)
PosPilotaTeamGrigliaGiroTempo / StatoPunti
1 1 Max Verstappen FL Red Bull 1 53 1:54:23.566 26
2 11 Sergio Pérez Red Bull 2 53 +12.535 18
3 55 Carlos Sainz Ferrari 4 53 +20.866 15
4 16 Charles Leclerc Ferrari 8 53 +26.522 12
5 4 Lando Norris McLaren 3 53 +29.700 10
6 14 Fernando Alonso Aston Martin 5 53 +44.272 8
7 63 George Russell Mercedes 9 53 +45.951 6
8 81 Oscar Piastri McLaren 6 53 +47.525 4
9 44 Lewis Hamilton Mercedes 7 53 +48.626 2
10 22 Yuki Tsunoda RB F1 Team 10 52 +1.602 1
11 27 Nico Hülkenberg Haas F1 Team 12 52 +7.168
12 18 Lance Stroll Aston Martin 16 52 +11.233
13 20 Kevin Magnussen Haas F1 Team 18 52 +17.919
14 77 Valtteri Bottas Sauber 13 52 +18.893
15 31 Esteban Ocon Alpine F1 Team 15 52 +41.152
16 10 Pierre Gasly Alpine F1 Team 17 52 +55.066
17 2 Logan Sargeant Williams 19 52 +1:12.765
R 24 Guanyu Zhou Sauber 20 12 Retired
R 3 Daniel Ricciardo RB F1 Team 11 0 Retired
R 23 Alexander Albon Williams 14 0 Retired
PosPilotaTeamQ1Q2Q3Distacco dalla pole
1 1 Max Verstappen Red Bull 1:28.866 1:28.740 1:28.197 POLE Q3
2 11 Sergio Pérez Red Bull 1:29.303 1:28.752 1:28.263 +0.066 Q3
3 4 Lando Norris McLaren 1:29.536 1:28.940 1:28.489 +0.292 Q3
4 55 Carlos Sainz Ferrari 1:29.513 1:29.099 1:28.682 +0.485 Q3
5 14 Fernando Alonso Aston Martin 1:29.254 1:29.082 1:28.686 +0.489 Q3
6 81 Oscar Piastri McLaren 1:29.425 1:29.148 1:28.760 +0.563 Q3
7 44 Lewis Hamilton Mercedes 1:29.661 1:28.887 1:28.766 +0.569 Q3
8 16 Charles Leclerc Ferrari 1:29.338 1:29.196 1:28.786 +0.589 Q3
9 63 George Russell Mercedes 1:29.799 1:29.140 1:29.008 +0.811 Q3
10 22 Yuki Tsunoda RB F1 Team 1:29.775 1:29.417 1:29.413 +1.216 Q3
11 3 Daniel Ricciardo RB F1 Team 1:29.727 1:29.472 +1.275 Q2
12 27 Nico Hülkenberg Haas F1 Team 1:29.821 1:29.494 +1.297 Q2
13 77 Valtteri Bottas Sauber 1:29.602 1:29.593 +1.396 Q2
14 23 Alexander Albon Williams 1:29.963 1:29.714 +1.517 Q2
15 31 Esteban Ocon Alpine F1 Team 1:29.811 1:29.816 +1.614 Q1
16 18 Lance Stroll Aston Martin 1:30.024 +1.827 Q1
17 10 Pierre Gasly Alpine F1 Team 1:30.119 +1.922 Q1
18 20 Kevin Magnussen Haas F1 Team 1:30.131 +1.934 Q1
19 2 Logan Sargeant Williams 1:30.139 +1.942 Q1
20 24 Guanyu Zhou Sauber 1:30.143 +1.946 Q1
Griglia di partenza
Ufficiale
Final grid as classificato, including any dalla pit lane partenze. Source: Jolpica-F1. The arrow compares the grid slot with the le qualifiche classification; hover a drop to see the stewards document behind it.
Nessun dato per questa sessione.
PosPilotaGiro miglioreDistaccoGiri
1 1 Max Verstappen 1:30.056 18
2 11 Sergio Pérez 1:30.237 +0.181 18
3 55 Carlos Sainz 1:30.269 +0.213 20
4 63 George Russell 1:30.530 +0.474 18
5 44 Lewis Hamilton 1:30.543 +0.487 23
6 16 Charles Leclerc 1:30.558 +0.502 18
7 14 Fernando Alonso 1:30.599 +0.543 20
8 81 Oscar Piastri 1:31.165 +1.109 23
9 22 Yuki Tsunoda 1:31.230 +1.174 20
10 4 Lando Norris 1:31.240 +1.184 22
11 31 Esteban Ocon 1:31.935 +1.879 19
12 23 Alexander Albon 1:31.943 +1.887 18
13 27 Nico Hülkenberg 1:31.958 +1.902 19
14 77 Valtteri Bottas 1:32.054 +1.998 17
15 18 Lance Stroll 1:32.055 +1.999 17
16 10 Pierre Gasly 1:32.277 +2.221 23
17 24 Guanyu Zhou 1:32.638 +2.582 18
18 20 Kevin Magnussen 1:32.803 +2.747 21
19 2 Logan Sargeant 1:33.204 +3.148 10
Classified by best lap · source OpenF1 (2023+)
PosPilotaGiro miglioreDistaccoGiri
1 81 Oscar Piastri 1:34.725 7
2 44 Lewis Hamilton 1:35.226 +0.501 6
3 16 Charles Leclerc 1:38.760 +4.035 4
4 22 Yuki Tsunoda 1:40.946 +6.221 8
5 3 Daniel Ricciardo 1:41.913 +7.188 9
6 4 Lando Norris 1:44.977 +10.252 3
7 27 Nico Hülkenberg 1:49.473 +14.748 5
8 55 Carlos Sainz 1:52.579 +17.854 3
9 77 Valtteri Bottas 1:56.059 +21.334 7
10 31 Esteban Ocon 1:59.113 +24.388 3
11 24 Guanyu Zhou 2:03.317 +28.592 7
12 23 Alexander Albon 2:03.821 +29.096 5
13 20 Kevin Magnussen 2:30.472 +55.747 4
Classified by best lap · source OpenF1 (2023+)
PosPilotaGiro miglioreDistaccoGiri
1 1 Max Verstappen 1:29.563 23
2 11 Sergio Pérez 1:29.832 +0.269 25
3 63 George Russell 1:29.918 +0.355 24
4 44 Lewis Hamilton 1:30.037 +0.474 21
5 14 Fernando Alonso 1:30.082 +0.519 24
6 4 Lando Norris 1:30.137 +0.574 14
7 55 Carlos Sainz 1:30.171 +0.608 27
8 81 Oscar Piastri 1:30.226 +0.663 19
9 22 Yuki Tsunoda 1:30.341 +0.778 21
10 16 Charles Leclerc 1:30.383 +0.820 25
11 23 Alexander Albon 1:30.533 +0.970 23
12 77 Valtteri Bottas 1:30.546 +0.983 26
13 3 Daniel Ricciardo 1:30.682 +1.119 24
14 31 Esteban Ocon 1:31.022 +1.459 18
15 24 Guanyu Zhou 1:31.067 +1.504 16
16 27 Nico Hülkenberg 1:31.139 +1.576 21
17 10 Pierre Gasly 1:31.141 +1.578 19
18 18 Lance Stroll 1:31.342 +1.779 23
19 2 Logan Sargeant 1:31.452 +1.889 20
20 20 Kevin Magnussen 1:31.462 +1.899 22
Classified by best lap · source OpenF1 (2023+)
#PilotaTempo sul giroGiro
1 1 Max Verstappen 1:33.706 L50
2 55 Carlos Sainz 1:33.841 L46
3 11 Sergio Pérez 1:33.945 L35
4 44 Lewis Hamilton 1:33.952 L41
5 55 Carlos Sainz 1:33.995 L38
6 44 Lewis Hamilton 1:34.082 L43
7 44 Lewis Hamilton 1:34.238 L42
8 1 Max Verstappen 1:34.273 L41
9 1 Max Verstappen 1:34.303 L43
10 55 Carlos Sainz 1:34.336 L44
Top 10 più veloce race giri — #1 is the più veloce lap of la gara(FL).
Pit stop · a confronto
23s 24s 25s 26s mediana 23.4s Oscar Piastri · L32 · 22.848s Lance Stroll · L34 · 22.911s Sergio Pérez · L33 · 22.956s Sergio Pérez · L15 · 22.990s George Russell · L37 · 22.991s Fernando Alonso · L13 · 22.998s Lando Norris · L11 · 23.049s Pierre Gasly · L32 · 23.102s Carlos Sainz · L15 · 23.136s Fernando Alonso · L33 · 23.157s Max Verstappen · L16 · 23.177s Lando Norris · L26 · 23.232s Max Verstappen · L34 · 23.234s Lance Stroll · L22 · 23.238s Charles Leclerc · L26 · 23.285s Logan Sargeant · L41 · 23.287s Lewis Hamilton · L23 · 23.333s Yuki Tsunoda · L7 · 23.358s Lance Stroll · L12 · 23.358s Esteban Ocon · L19 · 23.394s Oscar Piastri · L12 · 23.420s Yuki Tsunoda · L22 · 23.486s George Russell · L22 · 23.577s Carlos Sainz · L36 · 23.591s Nico Hülkenberg · L5 · 23.622s Pierre Gasly · L16 · 23.844s Guanyu Zhou · L7 · 23.910s Lewis Hamilton · L39 · 23.956s Nico Hülkenberg · L33 · 23.993s Esteban Ocon · L33 · 24.181s Logan Sargeant · L34 · 24.220s Valtteri Bottas · L6 · 24.824s Logan Sargeant · L22 · 25.530s Valtteri Bottas · L22 · 25.946s Kevin Magnussen · L22 · 26.198s Guanyu Zhou · L11 · 26.653s
più veloce 22.848s Oscar Piastri più lenta 26.653s Guanyu Zhou tempo di transito nella dalla pit lane — un punto per sosta
PilotaSostaGiroTempoTransito in dalla pit lane
14 Fernando Alonso 1 1 14:06:00
11 Sergio Pérez 1 1 14:05:52
16 Charles Leclerc 1 1 14:06:13
1 Max Verstappen 1 1 14:05:50
4 Lando Norris 1 1 14:05:54
31 Esteban Ocon 1 1 14:06:28
18 Lance Stroll 1 1 14:06:35
55 Carlos Sainz 1 1 14:05:57
81 Oscar Piastri 1 1 14:06:03
63 George Russell 1 1 14:06:18
27 Nico Hülkenberg 1 1 14:06:21
20 Kevin Magnussen 1 1 14:06:40
2 Logan Sargeant 1 1 14:06:43
44 Lewis Hamilton 1 1 14:06:12
77 Valtteri Bottas 1 1 14:06:22
22 Yuki Tsunoda 1 1 14:06:25
24 Guanyu Zhou 1 1 14:06:50
10 Pierre Gasly 1 1 14:06:30
27 Nico Hülkenberg 2 5 14:40:46 23.622s
77 Valtteri Bottas 2 6 14:42:21 24.824s
22 Yuki Tsunoda 2 7 14:43:59 23.358s
24 Guanyu Zhou 2 7 14:44:07 23.910s
4 Lando Norris 2 11 14:50:21 23.049s
24 Guanyu Zhou 3 11 14:51:01 26.653s
81 Oscar Piastri 2 12 14:52:06 23.420s
18 Lance Stroll 2 12 14:52:17 23.358s
14 Fernando Alonso 2 13 14:53:43 22.998s
11 Sergio Pérez 2 15 14:56:51 22.990s
55 Carlos Sainz 2 15 14:56:55 23.136s
1 Max Verstappen 2 16 14:58:23 23.177s
10 Pierre Gasly 2 16 14:59:18 23.844s
31 Esteban Ocon 2 19 15:04:11 23.394s
20 Kevin Magnussen 2 22 15:09:03 26.198s
63 George Russell 2 22 15:08:39 23.577s
2 Logan Sargeant 2 22 15:09:04 25.530s
22 Yuki Tsunoda 3 22 15:09:05 23.486s
77 Valtteri Bottas 3 22 15:09:04 25.946s
18 Lance Stroll 3 22 15:09:06 23.238s
44 Lewis Hamilton 2 23 15:10:21 23.333s
16 Charles Leclerc 2 26 15:15:01 23.285s
4 Lando Norris 3 26 15:15:02 23.232s
10 Pierre Gasly 3 32 15:26:03 23.102s
81 Oscar Piastri 3 32 15:25:00 22.848s
14 Fernando Alonso 3 33 15:26:33 23.157s
11 Sergio Pérez 3 33 15:26:18 22.956s
27 Nico Hülkenberg 3 33 15:27:22 23.993s
31 Esteban Ocon 3 33 15:27:33 24.181s
2 Logan Sargeant 3 34 15:29:04 24.220s
1 Max Verstappen 3 34 15:27:43 23.234s
18 Lance Stroll 4 34 15:28:58 22.911s
55 Carlos Sainz 3 36 15:31:14 23.591s
63 George Russell 3 37 15:33:07 22.991s
44 Lewis Hamilton 3 39 15:36:25 23.956s
2 Logan Sargeant 4 41 15:41:24 23.287s
soste
SG 10 20 30 40 L53
1
3
M15·+1
M18
H20
11
3
M14·+1
M18
H21
55
3
M14
M21·+1
H18
16
2
M25
H28
4
3
M10
H15
H28
14
3
S12·+1
M20
H21
63
3
M1
H20
H15
M17·+1
81
3
M11·+1
H20
H22
44
3
M1
H21
H16
M15
22
3
M1
S5
H15
H31
27
3
S4·+1
H28
H20
18
4
S11
M10
H12
S19
20
2
M21
H31
77
3
S5
H16
H31
31
3
S1
H17
H14
M20
10
3
S1
H14
M16
H21
2
4
S1
H20
H12
M7
S12
24
3
M1
S5
H6
3
0
M1
23
0
S1
S Soft M Medium H Hard I Intermediate W Wet SC·VSC bandiera rossa partenza da fermo sosta ai box penalità scontata ai box
Gara · larghezza barra = giri su quel treno, ·+N = montato usato con N giri pregressi · fonte OpenF1 (2023+)
Mescole designate per questo Gran Premio
C1 Dura C2 Media C3 Morbida
Pirelli designa tre delle sue mescole slick per ogni evento; più alto è il numero C, più morbida è la gomma. Documento FIA ↗
Più posizioni guadagnate in pista
63
+14
P9→P7
18
+14
P16→P12
27
+13
P12→P11
55
+11
P4→P3
16
+11
P8→P4
4
+11
P3→P5
22
+10
P10→P10
20
+10
P18→P13
Più posizioni perse
Nico Hülkenberg −14 Lando Norris −13 Valtteri Bottas −13
Gara · Somma delle posizioni guadagnate in pista giro per giro — esclusi il giro di partenza e i propri giri ai box. Dati dei giri di gara dal 1996.
PilotaTipoGiroScontataAssegnataMotivo
63 George Russell No further action Car 81 left the track between Turns 16 and 17 and rejoined in front of Car 63. (No further action.) Documento FIA ↗
Car 81 left the track between Turns 16 and 17 and rejoined in front of Car 63. (No further action.) Documento FIA ↗
3 Daniel Ricciardo No further action Incident between cars 3 & 23 approaching turn 3. (No further action.) Documento FIA ↗
Incident between cars 3 & 23 approaching turn 3. (No further action.) Documento FIA ↗
18 Lance Stroll No further action Pit Lane incident. (No further action.) Documento FIA ↗
Pit Lane incident. (No further action.) Documento FIA ↗
Giro = giro in cui è stata inflitta la penalità · Scontata = giro in cui è stata scontata ai box (vuoto: sommata al tempo di gara)
Time, drive-through and stop-go penalties come from race control messages (OpenF1, 2023+). Griglia penalties never appear there — the stewards publish them as documents after the session — so they are worked back from the starting grid against the le qualifiche classification, which gives places actually lost rather than the figure written in the decision.
PilotaTipoGiroScontataAssegnataMotivo
63 George Russell Fine €5,000 Unsafe release of Car 63. (The competitor (Mercedes-AMG PETRONAS F1 Team) is fined €5,000.) Documento FIA ↗
€5,000 Unsafe release of Car 63. (The competitor (Mercedes-AMG PETRONAS F1 Team) is fined €5,000.) Documento FIA ↗
Giro = giro in cui è stata inflitta la penalità · Scontata = giro in cui è stata scontata ai box (vuoto: sommata al tempo di gara)
Time, drive-through and stop-go penalties come from race control messages (OpenF1, 2023+). Griglia penalties never appear there — the stewards publish them as documents after the session — so they are worked back from the starting grid against the le qualifiche classification, which gives places actually lost rather than the figure written in the decision.
PilotaTipoGiroScontataAssegnataMotivo
18 Lance Stroll Fine €100 Pit lane speeding – 80.9 km/h (The competitor (Aston Martin Aramco Cognizant F1 Team) is fined €100.) Documento FIA ↗
€100 Pit lane speeding – 80.9 km/h (The competitor (Aston Martin Aramco Cognizant F1 Team) is fined €100.) Documento FIA ↗
27 Nico Hülkenberg Black-and-white flag warning FAILING TO FOLLOW RACE DIRECTORS INSTRUCTIONS – CROSSING THE LINE AT PIT EXIT
FAILING TO FOLLOW RACE DIRECTORS INSTRUCTIONS – CROSSING THE LINE AT PIT EXIT
Giro = giro in cui è stata inflitta la penalità · Scontata = giro in cui è stata scontata ai box (vuoto: sommata al tempo di gara)
Time, drive-through and stop-go penalties come from race control messages (OpenF1, 2023+). Griglia penalties never appear there — the stewards publish them as documents after the session — so they are worked back from the starting grid against the le qualifiche classification, which gives places actually lost rather than the figure written in the decision.
DocTitoloOggettoPublished(CET)
Event Notes - Pirelli Preview ↗ 2024-04-03 04:32
2024-04-03 04:32 CET
Event Notes - Red Zone ↗ 2024-04-03 11:36
2024-04-03 11:36 CET
Gara Director´s Event Notes ↗ 2024-04-04 06:00
2024-04-04 06:00 CET
Pit Lane Drawing ↗ 2024-04-04 09:39
2024-04-04 09:39 CET
Event Notes - Circuito Map ↗ 2024-04-04 10:22
2024-04-04 10:22 CET
Car Display Procedure ↗ 2024-04-04 11:47
2024-04-04 11:47 CET
RNCs usati per driver up to now ↗ 2024-04-05 01:07
2024-04-05 01:07 CET
PU elements usati per driver up to now ↗ 2024-04-05 01:07
2024-04-05 01:07 CET
Car Presentation Submissions ↗ 2024-04-05 02:00
2024-04-05 02:00 CET
Entry List ↗ 2024-04-05 02:31
2024-04-05 02:31 CET
Self scrutineering ↗ 2024-04-05 02:31
2024-04-05 02:31 CET
New PU elements for this Competition ↗ 2024-04-05 04:59
2024-04-05 04:59 CET
New RNCs for this Competition ↗ 2024-04-05 05:00
2024-04-05 05:00 CET
P1 Classification ↗ 2024-04-05 05:50
2024-04-05 05:50 CET
Infringement - Car 18 - Pit Lane Speeding ↗ 18 Lance Stroll 2024-04-05 07:27
18 Lance Stroll 2024-04-05 07:27 CET
P2 Classification ↗ 2024-04-05 10:05
2024-04-05 10:05 CET
Gara Director´s Note - SC2-SC1 Time ↗ 2024-04-05 10:14
2024-04-05 10:14 CET
P1 and P2 scrutineering ↗ 2024-04-05 11:12
2024-04-05 11:12 CET
RNCs usati outside allocation ↗ 2024-04-05 11:13
2024-04-05 11:13 CET
Curfew ↗ 2024-04-06 02:04
2024-04-06 02:04 CET
New PU elements for this Competition ↗ 2024-04-06 04:46
2024-04-06 04:46 CET
New RNCs for this Competition ↗ 2024-04-06 04:48
2024-04-06 04:48 CET
P3 Classification ↗ 2024-04-06 05:50
2024-04-06 05:50 CET
Decision - Qualifiche SC2-SC1 Times ↗ 2024-04-06 09:18
2024-04-06 09:18 CET
Qualifiche Deleted Giro Times ↗ 2024-04-06 09:20
2024-04-06 09:20 CET
Provisional Qualifiche Classification ↗ 2024-04-06 09:28
2024-04-06 09:28 CET
Summons - Car 63 - Alleged unsafe release of car 63 ↗ 63 George Russell 2024-04-06 09:46
63 George Russell 2024-04-06 09:46 CET
Summons - Car 81 - Alleged unsafe release of car 63 ↗ 81 Oscar Piastri 2024-04-06 09:46
81 Oscar Piastri 2024-04-06 09:46 CET
Infringement - Car 63 - Unsafe release ↗ 63 George Russell 2024-04-06 10:31
63 George Russell 2024-04-06 10:31 CET
P3 and Qualifiche scrutineering ↗ 2024-04-06 12:09
2024-04-06 12:09 CET
Final Qualifiche Classification ↗ 2024-04-06 12:15
2024-04-06 12:15 CET
Provisional Starting Griglia ↗ 2024-04-06 12:20
2024-04-06 12:20 CET
Self scrutineering ↗ 2024-04-07 04:49
2024-04-07 04:49 CET
Pre-Gara Procedure ↗ 2024-04-07 04:49
2024-04-07 04:49 CET
Post-Gara Procedure ↗ 2024-04-07 04:50
2024-04-07 04:50 CET
Parts and parameters been replaced and or changed during Parc Fermé ↗ 2024-04-07 04:56
2024-04-07 04:56 CET
Final Starting Griglia ↗ 2024-04-07 05:01
2024-04-07 05:01 CET
Summons - Car 23 - Incident between cars 3 & 63 ↗ 23 Alexander Albon 2024-04-07 08:49
23 Alexander Albon 2024-04-07 08:49 CET
Summons - Car 3 - Incident between cars 3 & 63 ↗ 3 Daniel Ricciardo 2024-04-07 09:08
3 Daniel Ricciardo 2024-04-07 09:08 CET
Decision - Car 18 - Pit Lane Incident ↗ 18 Lance Stroll 2024-04-07 09:13
18 Lance Stroll 2024-04-07 09:13 CET
Provisional Gara Classification ↗ 2024-04-07 09:22
2024-04-07 09:22 CET
Summons - Car 81 - alleged forcing another driver off the track by car 63 ↗ 81 Oscar Piastri 2024-04-07 09:29
81 Oscar Piastri 2024-04-07 09:29 CET
Summons - Car 63 - alleged forcing another driver off the track ↗ 63 George Russell 2024-04-07 09:30
63 George Russell 2024-04-07 09:30 CET
Gara Deleted Giro Times ↗ 2024-04-07 09:39
2024-04-07 09:39 CET
Decision - Car 3 - Incident with Car 23 in Turn 2 ↗ 3 Daniel Ricciardo 2024-04-07 10:18
3 Daniel Ricciardo 2024-04-07 10:18 CET
Gara scrutineering ↗ 2024-04-07 10:42
2024-04-07 10:42 CET
Decision - Car 63 - Alleged forcing car 81 off the track ↗ 63 George Russell 2024-04-07 11:15
63 George Russell 2024-04-07 11:15 CET
Final Gara Classification ↗ 2024-04-07 11:25
2024-04-07 11:25 CET
Campionato Punti ↗ 2024-04-07 11:30
2024-04-07 11:30 CET
Post-Qualifiche Procedure ↗ 2024-04-08 08:25
2024-04-08 08:25 CET
FIA official decisions and documents (fia.com) · PDF original PDF links
Record Basis · Calculation basis
Gara order is the final classification(post-race penalties applied) · le qualifiche session data 2003+ · lap times 1996+ · pit stops 2012+ (pit-lane transit, not stationary time) · Ritiro = Finished(Finished·+N Giri) non-Finished statuses
Fonti dei dati: Jolpica-F1 (Ergast compatible API) · weather·Direzione gara OpenF1 (2023+) · Last fetched: 2026-09-05 14:15